Wednesday, December 12, 2018, 10:55 PM EST
Back to Local

KOWD, Norwood Memorial Airport

Location: Norwood, MA, United States Lat: 42.183
Local Time: 10:55 PM EST ( 3:55 GMT) Lon: -71.167
Time Zone: US/Eastern Elev: 49 ft

Show me the last for .
Show Decoded

2018-12-12 21:53 METAR KOWD 130253Z AUTO 34005KT 10SM CLR M03/M16 A3032 RMK AO2 SLP266 T10331156
                 53030 =
2018-12-12 20:53 METAR KOWD 130153Z AUTO 34003KT 10SM CLR M03/M15 A3028 RMK AO2 SLP252 T10281150
                 =
2018-12-12 19:53 METAR KOWD 130053Z 36007KT 10SM CLR M02/M16 A3024 RMK AO2 SLP242 T10171156 =
2018-12-12 18:53 METAR KOWD 122353Z 33007KT 10SM CLR M01/M14 A3023 RMK AO2 SLP235 T10111144 10039
                 21011 51040 =
2018-12-12 17:53 METAR KOWD 122253Z 31006KT 10SM CLR 00/M13 A3019 RMK AO2 SLP225 T00001133 =
2018-12-12 16:53 METAR KOWD 122153Z 34005KT 10SM CLR 01/M11 A3015 RMK AO2 SLP210 T00111111 =
2018-12-12 15:53 METAR KOWD 122053Z 32008G15KT 10SM CLR 02/M10 A3011 RMK AO2 SLP196 T00221100
                 53021 =
2018-12-12 14:53 METAR KOWD 121953Z 30010KT 10SM FEW055 03/M10 A3007 RMK AO2 SLP184 T00331100 =
2018-12-12 13:53 METAR KOWD 121853Z 35008KT 10SM FEW055 04/M11 A3006 RMK AO2 SLP178 T00391106 =
2018-12-12 12:53 METAR KOWD 121753Z 32011G19KT 10SM BKN050 03/M11 A3005 RMK AO2 SLP175 T00331106
                 10039 21022 53008 =
2018-12-12 11:53 METAR KOWD 121653Z 31010G23KT 10SM FEW048 03/M09 A3004 RMK AO2 SLP172 T00281089
                 =
2018-12-12 10:53 METAR KOWD 121553Z 32012G17KT 10SM CLR 03/M07 A3003 RMK AO2 SLP169 T00281072 =
2018-12-12 09:53 METAR KOWD 121453Z 31011G17KT 10SM CLR 02/M07 A3002 RMK AO2 SLP167 T00171067
                 51017 =
2018-12-12 08:53 METAR KOWD 121353Z 32008KT 10SM CLR 01/M07 A3001 RMK AO2 SLP163 T00061072 =
2018-12-12 07:53 METAR KOWD 121253Z 00000KT 10SM OVC075 M01/M08 A2999 RMK AO2 SLP156 T10111078 =
2018-12-12 06:53 METAR KOWD 121153Z 33004KT 10SM FEW055 OVC080 M02/M08 A2997 RMK AO2 SLP150
                 T10171083 10006 21022 53024 =
2018-12-12 05:53 METAR KOWD 121053Z AUTO 32004KT 10SM BKN080 M02/M08 A2994 RMK AO2 SLP140
                 T10221083 =
2018-12-12 04:53 METAR KOWD 120953Z AUTO 31005KT 10SM CLR M02/M08 A2992 RMK AO2 SLP132 T10221083
                 =
2018-12-12 03:53 METAR KOWD 120853Z AUTO 32006KT 10SM SCT060 M01/M08 A2990 RMK AO2 SLP126
                 T10061083 51003 =
2018-12-12 02:53 METAR KOWD 120753Z AUTO 32005KT 10SM BKN043 OVC055 00/M08 A2990 RMK AO2 SLP125
                 T00001083 =
2018-12-12 01:53 METAR KOWD 120653Z AUTO 32004KT 10SM OVC042 00/M08 A2990 RMK AO2 SLP125
                 T00001078 =
2018-12-12 00:53 METAR KOWD 120553Z AUTO 33004KT 10SM OVC050 01/M08 A2989 RMK AO2 SLP123
                 T00061078 10011 21006 56014 =
2018-12-11 23:53 METAR KOWD 120453Z AUTO 00000KT 10SM OVC048 01/M07 A2990 RMK AO2 SLP124
                 T00061072 400391100 =

Support USWX by starting your Amazon purchase here.